This is the latest recevied weather packets stored in our database for station/object dl9mfl-6. If no packets are shown the sender has not sent any weather packets the latest 10 day(s).
| Time | Temp. | Humidity | Pressure | Rain* | Wind** | Luminosity | Snow |
|---|---|---|---|---|---|---|---|
| 1777744422 | 22.22° C | 40% | 1014.9 hPa | 0 mm | - | - | - |
| 1777744418 | 22.22° C | 40% | 1015 hPa | 0 mm | - | - | - |
| 1777744282 | 15.56° C | 54% | 1020.4 hPa | 0 mm | - | - | - |
| 1777744278 | 15.56° C | 54% | 1020.5 hPa | 0 mm | - | - | - |
| 1777744273 | 15.56° C | 55% | 1020.5 hPa | 0 mm | - | - | - |
| 1777744265 | 15.56° C | 54% | 1020.5 hPa | 0 mm | - | - | - |
| 1777744257 | 22.22° C | 40% | 1014.9 hPa | 0 mm | - | - | - |
| 1777744253 | 9.44° C | 71% | 1020.8 hPa | 0 mm | - | - | - |
| 1777744249 | 9.44° C | 72% | 1020.8 hPa | 0 mm | - | - | - |
| 1777744240 | 9.44° C | 73% | 1020.8 hPa | 0 mm | - | - | - |
| 1777744237 | 8.89° C | 73% | 1020.8 hPa | 0 mm | - | - | - |
| 1777744232 | 8.89° C | 73% | 1020.8 hPa | 0 mm | - | - | - |
| 1777744228 | 8.89° C | 73% | 1020.8 hPa | 0 mm | - | - | - |
| 1777744224 | 8.89° C | 73% | 1020.8 hPa | 0 mm | - | - | - |
| 1777744216 | 8.89° C | 73% | 1020.8 hPa | 0 mm | - | - | - |
| 1777744212 | 8.89° C | 74% | 1020.8 hPa | 0 mm | - | - | - |
| 1777744204 | 8.89° C | 74% | 1020.8 hPa | 0 mm | - | - | - |
| 1777744200 | 22.22° C | 40% | 1014.9 hPa | 0 mm | - | - | - |
| 1777744191 | 8.33° C | 74% | 1020.8 hPa | 0 mm | - | - | - |
| 1777744187 | 8.33° C | 75% | 1020.8 hPa | 0 mm | - | - | - |
| 1777744178 | 8.33° C | 75% | 1020.8 hPa | 0 mm | - | - | - |
| 1777744174 | 8.33° C | 76% | 1020.8 hPa | 0 mm | - | - | - |
| 1777744171 | 8.33° C | 76% | 1020.8 hPa | 0 mm | - | - | - |
| 1777744166 | 8.33° C | 77% | 1020.8 hPa | 0 mm | - | - | - |
| 1777744162 | 8.33° C | 77% | 1020.8 hPa | 0 mm | - | - | - |
* Rain latest hour (hover to see other rain measurements)
** Current wind speed in m/s (hover to see current wind gust speed)